Time;durP1;ratioP1;P1;durP2;ratioP2;P2;SDS_P1;SDS_P2;PMS_P1;PMS_P2;Temp;Humidity;BMP_temperature;BMP_pressure;BME280_temperature;BME280_humidity;BME280_pressure;Samples;Min_cycle;Max_cycle;Signal;HPM_P1;HPM_P2
2023/03/15 03:25:44;;;;;;;5.10;2.50;;;;;;;5.59;60.42;100692.04;104501;1289;600027;-94
2023/03/15 03:28:17;;;;;;;3.70;2.30;;;;;;;5.56;60.30;100697.16;106992;1254;60775;-93
2023/03/15 03:30:46;;;;;;;4.50;2.60;;;;;;;5.54;60.15;100700.20;107048;1254;61083;-94
2023/03/15 03:33:16;;;;;;;2.50;2.10;;;;;;;5.51;60.23;100696.30;107173;1254;72381;-91
2023/03/15 03:35:48;;;;;;;3.20;2.40;;;;;;;5.50;60.16;100697.90;108113;1254;64575;-92
2023/03/15 03:38:24;;;;;;;2.30;2.10;;;;;;;5.49;60.12;100704.71;107699;1252;1768401;-94
2023/03/15 03:41:20;;;;;;;4.50;2.60;;;;;;;5.49;60.18;100701.59;109401;1256;58429;-95
2023/03/15 03:43:56;;;;;;;3.70;2.80;;;;;;;5.47;60.13;100700.44;107940;1259;59330;-95
2023/03/15 03:46:27;;;;;;;3.10;2.00;;;;;;;5.43;60.16;100700.61;108998;1253;71344;-96
2023/03/15 03:48:56;;;;;;;3.90;2.10;;;;;;;5.42;60.18;100694.73;107321;1253;63454;-95
2023/03/15 03:51:25;;;;;;;2.70;1.90;;;;;;;5.44;59.92;100701.43;107495;1252;72695;-94
2023/03/15 03:53:55;;;;;;;4.00;2.20;;;;;;;5.44;60.09;100697.11;107835;1254;59196;-96
2023/03/15 03:56:38;;;;;;;7.00;2.60;;;;;;;5.42;60.14;100690.39;107921;1253;59634;-94
2023/03/15 03:59:09;;;;;;;3.10;2.80;;;;;;;5.43;60.18;100691.42;107801;1254;72977;-94
2023/03/15 04:01:54;;;;;;;4.90;2.30;;;;;;;5.44;59.82;100690.15;107854;1256;64106;-95
2023/03/15 04:04:29;;;;;;;4.60;2.40;;;;;;;5.43;59.90;100689.33;107530;1252;72834;-94
2023/03/15 04:07:02;;;;;;;3.70;2.30;;;;;;;5.44;59.94;100686.17;107596;1254;59740;-94
2023/03/15 04:10:03;;;;;;;3.40;2.40;;;;;;;5.46;60.12;100678.63;108572;1252;60285;-94
2023/03/15 04:13:09;;;;;;;3.00;2.60;;;;;;;5.47;59.82;100673.59;108180;1253;72717;-94
2023/03/15 04:16:02;;;;;;;2.80;2.30;;;;;;;5.49;59.55;100667.25;107511;1253;63578;-95
2023/03/15 04:18:44;;;;;;;3.30;2.20;;;;;;;5.49;59.63;100670.04;107655;1256;73512;-96
2023/03/15 04:21:14;;;;;;;4.50;2.70;;;;;;;5.46;59.56;100664.08;107957;1252;59126;-92
2023/03/15 04:23:52;;;;;;;4.60;3.90;;;;;;;5.48;59.44;100666.95;108652;1253;59968;-93
2023/03/15 04:26:46;;;;;;;4.20;3.10;;;;;;;5.44;59.25;100662.95;109005;1253;72942;-91
2023/03/15 04:29:30;;;;;;;5.70;2.90;;;;;;;5.36;59.29;100663.60;108930;1253;62988;-95
2023/03/15 04:32:18;;;;;;;;;;;;;;;5.28;59.68;100660.08;109545;1256;73712;-92
2023/03/15 04:35:13;;;;;;;5.80;2.60;;;;;;;5.23;59.63;100654.02;109618;1252;59270;-94
2023/03/15 04:38:12;;;;;;;5.40;2.90;;;;;;;5.19;59.68;100647.07;109293;1256;60862;-96
2023/03/15 04:41:26;;;;;;;6.60;4.00;;;;;;;5.17;59.81;100645.92;109310;1254;74969;-94
2023/03/15 04:44:27;;;;;;;5.40;2.50;;;;;;;5.15;59.93;100652.22;109210;1256;66365;-93
2023/03/15 04:47:09;;;;;;;6.90;3.10;;;;;;;5.14;60.03;100656.27;109175;1255;71774;-94
2023/03/15 04:50:38;;;;;;;4.20;3.00;;;;;;;5.25;59.98;100663.48;109511;1252;59679;-96
2023/03/15 04:54:26;;;;;;;4.40;2.80;;;;;;;5.40;59.67;100667.25;109659;1254;59793;-96
2023/03/15 04:58:12;;;;;;;4.70;3.10;;;;;;;5.47;59.22;100668.54;109187;1257;72176;-95
2023/03/15 05:01:29;;;;;;;8.20;3.00;;;;;;;5.51;59.04;100665.25;109075;1257;62916;-96
2023/03/15 05:04:49;;;;;;;6.70;3.40;;;;;;;5.54;59.00;100663.44;108849;1263;74305;-96
2023/03/15 05:07:51;;;;;;;5.30;3.40;;;;;;;5.56;58.84;100665.59;108914;1263;58857;-95
2023/03/15 05:10:47;;;;;;;7.50;3.80;;;;;;;5.63;58.84;100662.05;108883;1264;61359;-94
2023/03/15 05:13:50;;;;;;;5.10;3.40;;;;;;;5.71;58.48;100666.73;108948;1264;71234;-96
2023/03/15 05:16:54;;;;;;;5.50;3.40;;;;;;;5.74;58.30;100666.95;108846;1263;62134;-94
2023/03/15 05:21:17;;;;;;;6.70;3.30;;;;;;;5.81;58.10;100659.95;109075;1249;72974;31
2023/03/15 05:28:36;;;;;;;5.20;3.00;;;;;;;6.41;56.72;100655.79;108373;1260;59047;-96
2023/03/15 05:33:10;;;;;;;2.90;2.70;;;;;;;6.68;56.23;100663.67;108092;1270;74298;-95
2023/03/15 05:35:54;;;;;;;4.80;2.20;;;;;;;7.19;54.82;100659.73;106239;1275;63681;-96
2023/03/15 05:38:37;;;;;;;5.10;2.40;;;;;;;7.79;53.54;100660.89;106758;1273;73210;-96
2023/03/15 05:41:18;;;;;;;5.50;2.80;;;;;;;8.32;52.12;100653.80;106483;1274;59780;-96
2023/03/15 05:44:07;;;;;;;6.70;3.50;;;;;;;8.62;50.92;100655.11;107504;1273;60290;-95
2023/03/15 05:47:36;;;;;;;5.70;2.40;;;;;;;8.80;50.35;100657.15;107670;1273;73061;-94
2023/03/15 05:50:53;;;;;;;5.60;2.20;;;;;;;9.20;49.73;100656.58;108305;1273;62461;-95
2023/03/15 05:59:36;;;;;;;4.50;2.40;;;;;;;11.12;46.31;100660.25;108674;1271;59820;-96
2023/03/15 06:56:28;;;;;;;8.00;3.50;;;;;;;18.71;31.96;100596.59;101143;1286;972342;-96
2023/03/15 07:00:09;;;;;;;7.10;2.80;;;;;;;19.19;31.96;100600.16;107691;1273;72500;-95
2023/03/15 07:22:13;;;;;;;5.90;2.90;;;;;;;20.51;28.82;100593.13;107548;1283;72474;-95
2023/03/15 07:26:11;;;;;;;9.60;3.60;;;;;;;20.57;28.46;100605.12;107687;1266;60889;31
2023/03/15 07:32:09;;;;;;;6.30;3.00;;;;;;;20.09;29.09;100586.83;86121;1280;971773;-95
2023/03/15 07:35:22;;;;;;;4.50;2.70;;;;;;;20.14;29.05;100587.92;107710;1271;65288;-96
2023/03/15 07:38:42;;;;;;;5.10;3.10;;;;;;;20.39;29.02;100579.17;106782;1277;71204;-95
2023/03/15 07:41:58;;;;;;;7.20;2.90;;;;;;;20.60;28.66;100577.85;106292;1288;60293;-94
2023/03/15 07:45:13;;;;;;;4.20;2.50;;;;;;;20.86;28.68;100562.56;105893;1288;59114;-96
2023/03/15 07:47:56;;;;;;;;;;;;;;;21.13;28.48;100563.95;105232;1288;74083;-96
2023/03/15 07:53:44;;;;;;;5.30;3.00;;;;;;;21.23;27.89;100566.86;107222;1272;73741;-94
2023/03/15 07:59:57;;;;;;;6.90;3.10;;;;;;;21.47;27.61;100557.23;108293;1273;62455;-96
2023/03/15 08:29:56;;;;;;;9.70;3.70;;;;;;;22.18;27.84;100550.23;107606;1266;58925;31
2023/03/15 08:42:48;;;;;;;6.00;3.80;;;;;;;22.53;26.52;100545.09;108365;1273;71264;-96
2023/03/15 08:49:06;;;;;;;5.90;3.40;;;;;;;22.47;26.92;100528.63;108239;1271;59197;-96
2023/03/15 09:08:17;;;;;;;6.00;3.30;;;;;;;22.07;27.11;100513.14;108062;1273;73878;-96
2023/03/15 09:18:14;;;;;;;4.80;3.40;;;;;;;22.55;26.54;100500.61;105679;1273;60836;-95
2023/03/15 09:25:21;;;;;;;5.40;4.30;;;;;;;22.27;27.32;100489.32;107903;1269;71642;31
2023/03/15 10:06:47;;;;;;;9.80;4.50;;;;;;;22.74;27.05;100448.98;97387;1273;60969;-95
2023/03/15 10:10:18;;;;;;;7.70;4.40;;;;;;;22.51;27.81;100441.09;108056;1275;59118;-96
2023/03/15 10:21:35;;;;;;;7.10;4.10;;;;;;;22.28;28.12;100416.78;96004;1270;980977;-95
2023/03/15 10:26:18;;;;;;;5.90;4.60;;;;;;;22.12;27.94;100423.13;106843;1284;612540;-95
2023/03/15 10:29:37;;;;;;;6.20;4.20;;;;;;;22.18;28.82;100420.34;108427;1265;59375;-95
2023/03/15 10:32:50;;;;;;;8.40;5.20;;;;;;;22.36;28.02;100412.83;108655;1265;61068;-96
2023/03/15 11:15:08;;;;;;;7.60;6.00;;;;;;;22.67;29.50;100364.86;108511;1265;63599;-96
2023/03/15 11:21:45;;;;;;;5.80;4.80;;;;;;;22.48;28.71;100368.92;97398;1265;58764;-96
2023/03/15 11:25:25;;;;;;;7.80;5.90;;;;;;;22.23;29.04;100358.39;108327;1266;61752;-95
2023/03/15 11:28:57;;;;;;;8.10;5.30;;;;;;;22.09;29.52;100352.98;108539;1266;72222;-94
2023/03/15 11:35:37;;;;;;;6.70;5.30;;;;;;;22.11;29.61;100357.92;106427;1265;71044;-95
2023/03/15 11:42:49;;;;;;;6.30;4.60;;;;;;;21.92;30.09;100367.51;104706;1264;59241;-96
2023/03/15 11:46:39;;;;;;;6.80;4.80;;;;;;;21.58;30.78;100371.33;108748;1270;71546;-96
2023/03/15 11:49:41;;;;;;;7.00;5.80;;;;;;;21.58;31.00;100365.67;107554;1271;64835;-92
2023/03/15 11:52:42;;;;;;;5.90;5.40;;;;;;;21.66;31.08;100356.08;108142;1273;72698;-93
2023/03/15 11:55:38;;;;;;;6.40;4.90;;;;;;;21.58;30.63;100351.55;108499;1263;61077;-96
2023/03/15 12:02:57;;;;;;;6.20;4.60;;;;;;;21.10;31.06;100357.35;108221;1259;71971;31
2023/03/15 12:06:04;;;;;;;9.70;5.60;;;;;;;20.75;31.53;100352.01;108860;1270;64043;-92
2023/03/15 12:08:53;;;;;;;10.60;9.50;;;;;;;20.42;32.04;100341.85;107792;1278;72527;-96
2023/03/15 12:11:28;;;;;;;;;;;;;;;20.27;32.56;100347.11;107769;1278;60921;-95
2023/03/15 12:14:32;;;;;;;7.70;5.10;;;;;;;20.15;33.21;100347.33;107475;1279;62529;-96
2023/03/15 12:17:26;;;;;;;7.10;6.10;;;;;;;20.06;33.12;100345.08;107950;1266;72893;-95
2023/03/15 12:21:10;;;;;;;6.40;5.80;;;;;;;19.95;33.43;100354.37;108285;1267;63033;-95
2023/03/15 12:29:36;;;;;;;8.70;6.10;;;;;;;19.83;33.76;100344.34;106153;1288;58866;-96
2023/03/15 12:32:51;;;;;;;8.40;6.30;;;;;;;19.58;34.12;100349.89;107516;1266;61435;-95
2023/03/15 12:36:04;;;;;;;6.90;6.00;;;;;;;19.12;34.45;100347.91;106536;1276;71463;-95
2023/03/15 12:38:38;;;;;;;7.70;5.10;;;;;;;18.74;35.11;100332.55;105392;1273;1248335;-94
2023/03/15 12:41:39;;;;;;;7.30;6.30;;;;;;;18.52;35.76;100332.60;107648;1275;71791;-93
2023/03/15 12:44:31;;;;;;;7.30;6.60;;;;;;;18.40;36.39;100335.17;107555;1276;60250;-94
2023/03/15 12:47:16;;;;;;;8.10;5.80;;;;;;;18.25;36.52;100335.27;107982;1276;58926;-92
2023/03/15 12:54:08;;;;;;;9.90;6.90;;;;;;;17.70;37.43;100334.14;104304;1274;61564;-94
2023/03/15 12:58:09;;;;;;;10.40;6.10;;;;;;;17.43;37.79;100341.08;107272;1279;70366;-96
2023/03/15 13:01:27;;;;;;;9.30;6.60;;;;;;;17.17;38.03;100342.77;107773;1261;60280;-96
2023/03/15 13:04:48;;;;;;;8.50;7.00;;;;;;;16.66;38.84;100326.16;108560;1263;59269;-94
2023/03/15 13:07:24;;;;;;;9.70;6.80;;;;;;;16.33;39.88;100324.90;108635;1268;73001;-94
2023/03/15 13:10:37;;;;;;;13.10;7.40;;;;;;;16.13;40.59;100323.80;108035;1273;64459;-95
2023/03/15 13:14:05;;;;;;;7.60;6.40;;;;;;;16.16;40.82;100328.34;106575;1271;75170;-96
2023/03/15 13:17:17;;;;;;;6.60;5.90;;;;;;;16.13;40.54;100327.31;107335;1271;59286;-95
2023/03/15 13:21:21;;;;;;;13.40;7.10;;;;;;;15.93;40.86;100322.04;108548;1264;59423;-96
2023/03/15 13:24:02;;;;;;;8.40;7.60;;;;;;;15.79;41.47;100326.29;106651;1279;72311;-96
2023/03/15 13:27:33;;;;;;;10.60;7.60;;;;;;;15.70;41.68;100325.41;106926;1276;64072;-95
2023/03/15 13:30:41;;;;;;;9.50;7.70;;;;;;;15.61;41.76;100338.04;106023;1283;73083;-94
2023/03/15 13:33:22;;;;;;;10.50;7.80;;;;;;;15.46;41.96;100342.13;106328;1283;60516;-96
2023/03/15 13:36:03;;;;;;;7.90;6.90;;;;;;;15.34;42.26;100339.98;106055;1282;62061;-96
2023/03/15 13:38:36;;;;;;;7.80;6.60;;;;;;;15.27;42.35;100336.11;105018;1283;74835;-96
2023/03/15 13:41:29;;;;;;;13.00;11.50;;;;;;;15.15;42.54;100328.54;105926;1287;63615;-96
2023/03/15 13:44:01;;;;;;;8.90;7.60;;;;;;;15.05;42.91;100327.24;105335;1282;73950;-96
2023/03/15 13:46:33;;;;;;;11.70;9.20;;;;;;;14.93;43.08;100329.32;105690;1282;60588;-96
2023/03/15 13:49:30;;;;;;;9.90;8.50;;;;;;;14.76;43.35;100325.02;106060;1282;59698;-95
2023/03/15 13:52:49;;;;;;;10.40;9.10;;;;;;;14.61;43.65;100321.33;105710;1282;71940;-95
2023/03/15 13:55:43;;;;;;;8.20;7.50;;;;;;;14.52;44.08;100311.73;107875;1260;63211;-96
2023/03/15 13:59:03;;;;;;;11.70;8.40;;;;;;;14.44;44.24;100308.45;107544;1261;74561;-96
2023/03/15 14:01:37;;;;;;;11.00;8.10;;;;;;;14.40;44.35;100313.55;107356;1269;60855;-96
2023/03/15 14:04:19;;;;;;;12.60;10.10;;;;;;;14.32;44.48;100314.52;108094;1270;61386;-95
2023/03/15 14:06:48;;;;;;;9.20;8.10;;;;;;;14.25;44.68;100319.96;108703;1270;72880;-96
2023/03/15 14:09:27;;;;;;;11.90;9.10;;;;;;;14.22;44.68;100316.72;107745;1269;63834;-95
2023/03/15 14:12:02;;;;;;;11.00;9.40;;;;;;;14.19;45.00;100319.77;107235;1270;73383;-96
2023/03/15 14:14:52;;;;;;;13.20;8.60;;;;;;;14.24;45.20;100317.40;106489;1279;62411;-96
2023/03/15 14:18:27;;;;;;;8.90;7.70;;;;;;;14.28;45.16;100315.91;106169;1276;60092;-94
2023/03/15 14:31:33;;;;;;;11.30;8.60;;;;;;;13.98;45.46;100317.81;108383;1263;61101;-90
2023/03/15 14:34:25;;;;;;;7.80;7.10;;;;;;;13.84;45.49;100317.95;107669;1276;59478;-95
2023/03/15 14:37:34;;;;;;;11.10;9.10;;;;;;;13.71;45.76;100318.81;107301;1275;73369;-95
2023/03/15 14:40:16;;;;;;;11.10;8.30;;;;;;;13.67;45.77;100322.60;107756;1278;64012;-93
2023/03/15 14:42:44;;;;;;;13.90;9.50;;;;;;;13.63;45.82;100320.69;107372;1279;72899;-94
2023/03/15 14:45:13;;;;;;;11.90;9.30;;;;;;;13.56;45.98;100314.71;105167;1280;60901;-95
2023/03/15 14:47:50;;;;;;;12.80;9.20;;;;;;;13.51;46.00;100314.76;105661;1279;60234;-96
2023/03/15 14:50:29;;;;;;;17.80;11.00;;;;;;;13.48;46.15;100306.69;104941;1282;73538;-96
2023/03/15 14:52:57;;;;;;;17.80;11.10;;;;;;;13.47;46.43;100308.36;105510;1278;64641;-95
2023/03/15 14:55:34;;;;;;;16.50;10.40;;;;;;;13.46;46.16;100301.75;106274;1278;71863;-94
2023/03/15 14:58:35;;;;;;;10.70;8.60;;;;;;;13.48;45.89;100299.34;106546;1280;59524;-95
2023/03/15 15:01:04;;;;;;;9.90;8.70;;;;;;;13.46;45.90;100298.30;105764;1279;59707;-94
2023/03/15 15:03:34;;;;;;;9.90;8.90;;;;;;;13.42;45.95;100297.52;106217;1278;73283;-95
2023/03/15 15:06:08;;;;;;;8.50;7.70;;;;;;;13.32;45.86;100290.52;106390;1279;61642;-94
2023/03/15 15:08:52;;;;;;;17.30;8.70;;;;;;;13.28;45.90;100291.55;108119;1273;75727;-95
2023/03/15 15:11:24;;;;;;;14.00;8.30;;;;;;;13.23;46.07;100290.73;108153;1270;61458;-95
2023/03/15 15:14:11;;;;;;;12.10;8.80;;;;;;;13.19;46.12;100289.60;108191;1270;60296;-94
2023/03/15 15:18:58;;;;;;;13.80;9.30;;;;;;;13.15;46.15;100283.55;106092;1292;615078;-95
2023/03/15 15:21:51;;;;;;;10.90;9.50;;;;;;;13.09;46.32;100284.77;109142;1255;60397;-94
2023/03/15 15:24:21;;;;;;;15.20;8.80;;;;;;;13.05;46.59;100281.01;109571;1254;60249;-95
2023/03/15 15:26:53;;;;;;;20.90;9.90;;;;;;;13.02;46.45;100277.40;109621;1254;73113;-95
2023/03/15 15:29:24;;;;;;;12.90;8.40;;;;;;;12.94;46.36;100272.71;109718;1255;63335;-96
2023/03/15 15:31:53;;;;;;;12.00;8.90;;;;;;;12.92;46.50;100276.20;109110;1254;578908;-96
2023/03/15 15:34:53;;;;;;;14.10;8.30;;;;;;;12.86;46.38;100268.88;108689;1256;59481;-96
2023/03/15 15:37:31;;;;;;;13.10;9.00;;;;;;;12.82;46.57;100271.88;107804;1256;60234;-96
2023/03/15 15:53:32;;;;;;;14.90;9.10;;;;;;;13.05;46.64;100269.96;106946;1283;612848;-96
2023/03/15 15:56:55;;;;;;;15.30;9.30;;;;;;;13.13;46.75;100269.02;107368;1254;2368319;-96
2023/03/15 15:59:30;;;;;;;13.80;9.60;;;;;;;13.09;46.59;100267.71;108226;1254;60723;-96
2023/03/15 16:02:26;;;;;;;16.70;10.40;;;;;;;13.08;46.51;100276.44;109556;1254;71793;-96
2023/03/15 16:05:51;;;;;;;15.60;9.60;;;;;;;12.96;46.34;100279.23;109099;1254;66330;-96
2023/03/15 16:15:44;;;;;;;19.10;9.60;;;;;;;12.54;46.36;100291.82;88836;1272;982115;-95
2023/03/15 16:18:41;;;;;;;26.90;10.30;;;;;;;12.40;45.81;100287.96;107580;1273;73267;-96
2023/03/15 16:22:19;;;;;;;16.70;7.50;;;;;;;12.29;45.52;100306.43;107253;1276;62623;-96
2023/03/15 16:25:24;;;;;;;22.70;8.80;;;;;;;12.14;45.82;100310.66;105779;1276;73865;-95
2023/03/15 16:28:34;;;;;;;19.40;12.70;;;;;;;12.01;46.08;100312.27;106945;1282;61376;-95
2023/03/15 16:31:26;;;;;;;12.90;7.00;;;;;;;11.92;46.24;100315.89;107786;1276;60325;-95
2023/03/15 16:34:55;;;;;;;10.30;6.80;;;;;;;11.83;46.56;100315.29;108031;1275;72334;-96
2023/03/15 16:49:31;;;;;;;19.50;9.40;;;;;;;11.72;47.12;100323.05;106576;1284;612946;-95
2023/03/15 16:53:03;;;;;;;18.70;8.40;;;;;;;11.60;47.68;100342.08;103018;1278;6619177;-96
2023/03/15 17:03:20;;;;;;;24.60;7.10;;;;;;;11.22;49.55;100344.13;107096;1279;71886;-95
2023/03/15 17:07:09;;;;;;;18.40;8.00;;;;;;;11.15;50.43;100353.17;106112;1288;600289;-96
2023/03/15 17:53:36;;;;;;;35.00;11.10;;;;;;;10.28;54.81;100322.95;106768;1279;612574;-96
2023/03/15 17:57:18;;;;;;;32.60;11.60;;;;;;;10.11;55.69;100329.08;99605;1276;10161227;-96
2023/03/15 18:00:31;;;;;;;26.50;10.00;;;;;;;9.97;56.36;100335.03;107510;1276;72026;-96
2023/03/15 18:45:44;;;;;;;24.70;8.60;;;;;;;9.20;65.55;100344.04;106724;1282;60682;-94
2023/03/15 18:50:04;;;;;;;22.00;7.60;;;;;;;9.11;65.95;100340.70;106948;1282;58869;-94
2023/03/15 18:54:22;;;;;;;21.50;8.90;;;;;;;9.05;66.33;100335.30;107015;1279;71568;31
2023/03/15 19:01:26;;;;;;;23.80;8.80;;;;;;;9.01;67.01;100321.59;106149;1286;71200;-96
2023/03/15 19:18:03;;;;;;;18.90;10.10;;;;;;;8.88;69.17;100346.36;95054;1276;62404;-96
2023/03/15 19:22:58;;;;;;;;;;;;;;;;;;;;;
2023/03/15 19:26:46;;;;;;;29.80;9.00;;;;;;;8.90;69.55;100338.96;107090;1273;61489;-96
2023/03/15 19:30:15;;;;;;;23.50;9.80;;;;;;;8.90;69.73;100335.81;107641;1273;61910;-94
2023/03/15 19:34:21;;;;;;;22.40;11.40;;;;;;;8.92;70.00;100350.34;107904;1270;71540;-95
2023/03/15 19:38:36;;;;;;;26.90;13.00;;;;;;;9.05;70.36;100338.64;107313;1272;64621;-94
2023/03/15 19:42:03;;;;;;;29.20;12.50;;;;;;;9.13;70.09;100329.44;107628;1279;75370;-96
2023/03/15 19:46:00;;;;;;;32.60;14.40;;;;;;;9.17;69.54;100315.08;107435;1278;59630;-95
2023/03/15 19:52:46;;;;;;;24.10;14.20;;;;;;;9.02;70.98;100310.04;107367;1279;73377;-96
2023/03/15 19:57:04;;;;;;;;;;;;;;;;;;;;;
2023/03/15 20:02:01;;;;;;;15.90;10.20;;;;;;;8.88;70.41;100319.40;107348;1273;71455;-91
2023/03/15 20:05:31;;;;;;;24.50;12.30;;;;;;;8.75;70.59;100316.30;106443;1279;61781;-96
2023/03/15 20:08:18;;;;;;;23.20;12.50;;;;;;;8.73;71.21;100315.36;106209;1283;61311;-96
2023/03/15 20:11:05;;;;;;;22.60;11.40;;;;;;;8.72;71.74;100316.12;107215;1279;73629;-96
2023/03/15 20:14:56;;;;;;;18.80;11.20;;;;;;;8.72;72.30;100316.34;107551;1279;61875;-96
2023/03/15 20:17:52;;;;;;;22.10;10.80;;;;;;;8.75;72.35;100309.54;107626;1279;72031;-96
2023/03/15 20:20:56;;;;;;;17.40;10.00;;;;;;;8.75;72.32;100305.86;106725;1280;62755;-96
2023/03/15 20:24:43;;;;;;;29.00;12.50;;;;;;;8.71;72.12;100303.46;106647;1280;59334;-94
2023/03/15 20:27:36;;;;;;;;;;;;;;;8.68;72.06;100283.39;106529;1280;74036;-96
2023/03/15 20:30:34;;;;;;;17.60;9.50;;;;;;;8.64;71.93;100278.25;107359;1279;62769;-96
2023/03/15 20:33:31;;;;;;;14.50;8.50;;;;;;;8.59;72.09;100277.30;106150;1280;73760;-96
2023/03/15 20:36:28;;;;;;;;;;;;;;;8.57;71.86;100279.54;106652;1279;60824;-95
2023/03/15 20:39:42;;;;;;;13.00;8.50;;;;;;;8.58;72.21;100280.48;107073;1279;60616;-96
2023/03/15 20:42:47;;;;;;;14.70;9.60;;;;;;;8.59;72.77;100279.73;106580;1279;73748;-96
2023/03/15 20:45:43;;;;;;;25.50;13.50;;;;;;;8.66;73.82;100278.10;106919;1279;60798;-95
